sensor_id;sensor_type;location;lat;lon;timestamp;P1;durP1;ratioP1;P2;durP2;ratioP2
24147;SDS011;12309;51.450;-2.624;2024-03-07T00:00:21;16.87;;;12.20;;
24147;SDS011;12309;51.450;-2.624;2024-03-07T00:02:48;15.40;;;10.40;;
24147;SDS011;12309;51.450;-2.624;2024-03-07T00:05:18;12.23;;;9.70;;
24147;SDS011;12309;51.450;-2.624;2024-03-07T00:07:45;12.17;;;9.37;;
24147;SDS011;12309;51.450;-2.624;2024-03-07T00:10:11;12.63;;;9.50;;
24147;SDS011;12309;51.450;-2.624;2024-03-07T00:12:38;16.47;;;10.70;;
24147;SDS011;12309;51.450;-2.624;2024-03-07T00:17:32;11.83;;;8.50;;
24147;SDS011;12309;51.450;-2.624;2024-03-07T00:19:58;12.57;;;9.73;;
24147;SDS011;12309;51.450;-2.624;2024-03-07T00:22:23;12.83;;;10.07;;
24147;SDS011;12309;51.450;-2.624;2024-03-07T00:24:52;11.77;;;9.53;;
24147;SDS011;12309;51.450;-2.624;2024-03-07T00:27:18;13.00;;;10.10;;
24147;SDS011;12309;51.450;-2.624;2024-03-07T00:29:46;12.27;;;9.73;;
24147;SDS011;12309;51.450;-2.624;2024-03-07T00:32:22;12.60;;;9.97;;
24147;SDS011;12309;51.450;-2.624;2024-03-07T00:34:48;13.20;;;10.10;;
24147;SDS011;12309;51.450;-2.624;2024-03-07T00:37:15;12.23;;;9.97;;
24147;SDS011;12309;51.450;-2.624;2024-03-07T00:39:41;12.00;;;9.47;;
24147;SDS011;12309;51.450;-2.624;2024-03-07T00:42:07;13.23;;;10.60;;
24147;SDS011;12309;51.450;-2.624;2024-03-07T00:44:33;12.83;;;10.07;;
24147;SDS011;12309;51.450;-2.624;2024-03-07T00:47:02;13.67;;;10.37;;
24147;SDS011;12309;51.450;-2.624;2024-03-07T00:49:29;12.27;;;10.17;;
24147;SDS011;12309;51.450;-2.624;2024-03-07T00:51:55;11.47;;;9.83;;
24147;SDS011;12309;51.450;-2.624;2024-03-07T00:54:21;12.50;;;10.20;;
24147;SDS011;12309;51.450;-2.624;2024-03-07T00:56:47;10.37;;;8.40;;
24147;SDS011;12309;51.450;-2.624;2024-03-07T00:59:14;11.70;;;8.80;;
24147;SDS011;12309;51.450;-2.624;2024-03-07T01:01:40;11.07;;;8.63;;
24147;SDS011;12309;51.450;-2.624;2024-03-07T01:04:07;9.83;;;8.17;;
24147;SDS011;12309;51.450;-2.624;2024-03-07T01:06:32;12.83;;;8.60;;
24147;SDS011;12309;51.450;-2.624;2024-03-07T01:08:58;10.73;;;8.83;;
24147;SDS011;12309;51.450;-2.624;2024-03-07T01:11:24;12.43;;;9.03;;
24147;SDS011;12309;51.450;-2.624;2024-03-07T01:13:50;12.07;;;9.77;;
24147;SDS011;12309;51.450;-2.624;2024-03-07T01:16:16;13.93;;;10.70;;
24147;SDS011;12309;51.450;-2.624;2024-03-07T01:18:42;14.57;;;10.57;;
24147;SDS011;12309;51.450;-2.624;2024-03-07T01:21:07;14.63;;;10.73;;
24147;SDS011;12309;51.450;-2.624;2024-03-07T01:23:33;14.57;;;10.70;;
24147;SDS011;12309;51.450;-2.624;2024-03-07T01:25:59;14.57;;;11.37;;
24147;SDS011;12309;51.450;-2.624;2024-03-07T01:28:25;14.57;;;11.33;;
24147;SDS011;12309;51.450;-2.624;2024-03-07T01:30:54;14.97;;;11.43;;
24147;SDS011;12309;51.450;-2.624;2024-03-07T01:33:21;15.93;;;11.60;;
24147;SDS011;12309;51.450;-2.624;2024-03-07T01:35:47;15.17;;;12.13;;
24147;SDS011;12309;51.450;-2.624;2024-03-07T01:38:13;15.07;;;12.03;;
24147;SDS011;12309;51.450;-2.624;2024-03-07T01:40:40;15.60;;;12.60;;
24147;SDS011;12309;51.450;-2.624;2024-03-07T01:43:06;18.27;;;12.43;;
24147;SDS011;12309;51.450;-2.624;2024-03-07T01:45:32;17.33;;;12.27;;
24147;SDS011;12309;51.450;-2.624;2024-03-07T01:47:58;18.97;;;13.20;;
24147;SDS011;12309;51.450;-2.624;2024-03-07T01:50:24;16.03;;;12.77;;
24147;SDS011;12309;51.450;-2.624;2024-03-07T01:52:50;18.20;;;13.50;;
24147;SDS011;12309;51.450;-2.624;2024-03-07T01:55:16;17.57;;;12.40;;
24147;SDS011;12309;51.450;-2.624;2024-03-07T01:57:43;15.83;;;12.30;;
24147;SDS011;12309;51.450;-2.624;2024-03-07T02:00:10;20.93;;;12.53;;
24147;SDS011;12309;51.450;-2.624;2024-03-07T02:02:36;20.20;;;13.47;;
24147;SDS011;12309;51.450;-2.624;2024-03-07T02:05:03;18.47;;;12.93;;
24147;SDS011;12309;51.450;-2.624;2024-03-07T02:07:29;17.80;;;13.07;;
24147;SDS011;12309;51.450;-2.624;2024-03-07T02:09:59;17.23;;;12.93;;
24147;SDS011;12309;51.450;-2.624;2024-03-07T02:12:25;18.40;;;12.73;;
24147;SDS011;12309;51.450;-2.624;2024-03-07T02:14:51;19.67;;;12.57;;
24147;SDS011;12309;51.450;-2.624;2024-03-07T02:17:17;16.13;;;11.93;;
24147;SDS011;12309;51.450;-2.624;2024-03-07T02:19:44;18.47;;;12.60;;
24147;SDS011;12309;51.450;-2.624;2024-03-07T02:22:11;17.87;;;12.97;;
24147;SDS011;12309;51.450;-2.624;2024-03-07T02:24:37;17.70;;;12.40;;
24147;SDS011;12309;51.450;-2.624;2024-03-07T02:27:03;16.77;;;12.10;;
24147;SDS011;12309;51.450;-2.624;2024-03-07T02:29:29;18.97;;;13.27;;
24147;SDS011;12309;51.450;-2.624;2024-03-07T02:31:55;19.27;;;12.73;;
24147;SDS011;12309;51.450;-2.624;2024-03-07T02:34:21;17.13;;;12.23;;
24147;SDS011;12309;51.450;-2.624;2024-03-07T02:36:47;18.10;;;13.30;;
24147;SDS011;12309;51.450;-2.624;2024-03-07T02:39:13;16.53;;;12.43;;
24147;SDS011;12309;51.450;-2.624;2024-03-07T02:41:38;18.30;;;12.80;;
24147;SDS011;12309;51.450;-2.624;2024-03-07T02:44:04;18.97;;;12.57;;
24147;SDS011;12309;51.450;-2.624;2024-03-07T02:46:30;19.37;;;13.10;;
24147;SDS011;12309;51.450;-2.624;2024-03-07T02:48:57;16.63;;;12.27;;
24147;SDS011;12309;51.450;-2.624;2024-03-07T02:51:23;16.37;;;11.33;;
24147;SDS011;12309;51.450;-2.624;2024-03-07T02:53:49;14.77;;;10.37;;
24147;SDS011;12309;51.450;-2.624;2024-03-07T02:56:15;15.03;;;11.63;;
24147;SDS011;12309;51.450;-2.624;2024-03-07T03:01:54;18.63;;;11.53;;
24147;SDS011;12309;51.450;-2.624;2024-03-07T03:04:20;16.03;;;11.47;;
24147;SDS011;12309;51.450;-2.624;2024-03-07T03:06:45;16.80;;;10.53;;
24147;SDS011;12309;51.450;-2.624;2024-03-07T03:09:11;16.37;;;11.87;;
24147;SDS011;12309;51.450;-2.624;2024-03-07T03:11:42;15.30;;;9.67;;
24147;SDS011;12309;51.450;-2.624;2024-03-07T03:14:08;15.80;;;10.23;;
24147;SDS011;12309;51.450;-2.624;2024-03-07T03:16:35;14.63;;;10.60;;
24147;SDS011;12309;51.450;-2.624;2024-03-07T03:19:01;14.37;;;10.63;;
24147;SDS011;12309;51.450;-2.624;2024-03-07T03:21:27;15.87;;;10.67;;
24147;SDS011;12309;51.450;-2.624;2024-03-07T03:23:52;14.90;;;10.67;;
24147;SDS011;12309;51.450;-2.624;2024-03-07T03:26:19;13.57;;;10.53;;
24147;SDS011;12309;51.450;-2.624;2024-03-07T03:28:46;16.97;;;11.30;;
24147;SDS011;12309;51.450;-2.624;2024-03-07T03:31:12;16.37;;;11.07;;
24147;SDS011;12309;51.450;-2.624;2024-03-07T03:33:39;18.10;;;11.43;;
24147;SDS011;12309;51.450;-2.624;2024-03-07T03:36:05;17.47;;;11.37;;
24147;SDS011;12309;51.450;-2.624;2024-03-07T03:38:32;17.43;;;11.17;;
24147;SDS011;12309;51.450;-2.624;2024-03-07T03:40:57;16.83;;;10.83;;
24147;SDS011;12309;51.450;-2.624;2024-03-07T03:43:23;19.13;;;11.13;;
24147;SDS011;12309;51.450;-2.624;2024-03-07T03:45:49;16.73;;;11.10;;
24147;SDS011;12309;51.450;-2.624;2024-03-07T03:48:14;16.47;;;11.37;;
24147;SDS011;12309;51.450;-2.624;2024-03-07T03:50:40;16.50;;;11.30;;
24147;SDS011;12309;51.450;-2.624;2024-03-07T03:53:06;18.60;;;11.47;;
24147;SDS011;12309;51.450;-2.624;2024-03-07T03:55:33;15.50;;;11.20;;
24147;SDS011;12309;51.450;-2.624;2024-03-07T03:57:59;17.20;;;11.60;;
24147;SDS011;12309;51.450;-2.624;2024-03-07T04:00:24;18.30;;;11.03;;
24147;SDS011;12309;51.450;-2.624;2024-03-07T04:02:50;16.87;;;11.70;;
24147;SDS011;12309;51.450;-2.624;2024-03-07T04:05:17;16.47;;;10.73;;
24147;SDS011;12309;51.450;-2.624;2024-03-07T04:07:45;16.47;;;11.07;;
24147;SDS011;12309;51.450;-2.624;2024-03-07T04:10:11;18.00;;;11.10;;
24147;SDS011;12309;51.450;-2.624;2024-03-07T04:12:38;16.40;;;11.13;;
24147;SDS011;12309;51.450;-2.624;2024-03-07T04:15:09;15.03;;;10.70;;
24147;SDS011;12309;51.450;-2.624;2024-03-07T04:17:36;13.83;;;10.77;;
24147;SDS011;12309;51.450;-2.624;2024-03-07T04:20:03;15.33;;;10.40;;
24147;SDS011;12309;51.450;-2.624;2024-03-07T04:22:33;14.00;;;10.13;;
24147;SDS011;12309;51.450;-2.624;2024-03-07T04:24:59;15.87;;;10.40;;
24147;SDS011;12309;51.450;-2.624;2024-03-07T04:27:26;15.93;;;10.40;;
24147;SDS011;12309;51.450;-2.624;2024-03-07T04:29:52;20.50;;;11.40;;
24147;SDS011;12309;51.450;-2.624;2024-03-07T04:32:17;16.73;;;11.07;;
24147;SDS011;12309;51.450;-2.624;2024-03-07T04:34:46;14.93;;;10.77;;
24147;SDS011;12309;51.450;-2.624;2024-03-07T04:37:12;14.30;;;10.97;;
24147;SDS011;12309;51.450;-2.624;2024-03-07T04:39:40;16.20;;;11.10;;
24147;SDS011;12309;51.450;-2.624;2024-03-07T04:42:06;13.77;;;10.50;;
24147;SDS011;12309;51.450;-2.624;2024-03-07T04:44:34;16.03;;;11.47;;
24147;SDS011;12309;51.450;-2.624;2024-03-07T04:47:00;15.33;;;11.70;;
24147;SDS011;12309;51.450;-2.624;2024-03-07T04:49:27;16.63;;;12.23;;
24147;SDS011;12309;51.450;-2.624;2024-03-07T04:51:54;19.50;;;12.23;;
24147;SDS011;12309;51.450;-2.624;2024-03-07T04:54:22;17.50;;;11.83;;
24147;SDS011;12309;51.450;-2.624;2024-03-07T04:56:49;15.30;;;11.47;;
24147;SDS011;12309;51.450;-2.624;2024-03-07T04:59:16;15.30;;;11.40;;
24147;SDS011;12309;51.450;-2.624;2024-03-07T05:01:43;17.00;;;11.80;;
24147;SDS011;12309;51.450;-2.624;2024-03-07T05:04:10;14.73;;;10.83;;
24147;SDS011;12309;51.450;-2.624;2024-03-07T05:06:37;14.93;;;11.67;;
24147;SDS011;12309;51.450;-2.624;2024-03-07T05:09:03;17.17;;;11.50;;
24147;SDS011;12309;51.450;-2.624;2024-03-07T05:11:32;15.20;;;11.00;;
24147;SDS011;12309;51.450;-2.624;2024-03-07T05:13:58;16.27;;;11.13;;
24147;SDS011;12309;51.450;-2.624;2024-03-07T05:16:25;15.37;;;11.00;;
24147;SDS011;12309;51.450;-2.624;2024-03-07T05:18:51;19.67;;;12.13;;
24147;SDS011;12309;51.450;-2.624;2024-03-07T05:21:17;18.17;;;11.70;;
24147;SDS011;12309;51.450;-2.624;2024-03-07T05:23:59;19.63;;;12.13;;
24147;SDS011;12309;51.450;-2.624;2024-03-07T05:26:26;16.17;;;11.23;;
24147;SDS011;12309;51.450;-2.624;2024-03-07T05:28:52;15.90;;;10.73;;
24147;SDS011;12309;51.450;-2.624;2024-03-07T05:31:21;20.10;;;11.33;;
24147;SDS011;12309;51.450;-2.624;2024-03-07T05:33:46;18.30;;;11.60;;
24147;SDS011;12309;51.450;-2.624;2024-03-07T05:36:13;16.33;;;11.60;;
24147;SDS011;12309;51.450;-2.624;2024-03-07T05:38:43;17.90;;;11.63;;
24147;SDS011;12309;51.450;-2.624;2024-03-07T05:41:10;19.83;;;12.17;;
24147;SDS011;12309;51.450;-2.624;2024-03-07T05:43:37;19.67;;;11.67;;
24147;SDS011;12309;51.450;-2.624;2024-03-07T05:46:03;18.23;;;12.20;;
24147;SDS011;12309;51.450;-2.624;2024-03-07T05:48:31;29.17;;;13.73;;
24147;SDS011;12309;51.450;-2.624;2024-03-07T05:50:58;17.27;;;12.40;;
24147;SDS011;12309;51.450;-2.624;2024-03-07T05:53:24;18.93;;;12.57;;
24147;SDS011;12309;51.450;-2.624;2024-03-07T05:55:50;17.20;;;11.83;;
24147;SDS011;12309;51.450;-2.624;2024-03-07T05:58:16;18.27;;;12.53;;
24147;SDS011;12309;51.450;-2.624;2024-03-07T06:00:45;24.47;;;14.17;;
24147;SDS011;12309;51.450;-2.624;2024-03-07T06:03:17;18.20;;;12.53;;
24147;SDS011;12309;51.450;-2.624;2024-03-07T06:05:46;17.80;;;12.63;;
24147;SDS011;12309;51.450;-2.624;2024-03-07T06:08:17;17.60;;;12.50;;
24147;SDS011;12309;51.450;-2.624;2024-03-07T06:10:43;19.47;;;12.43;;
24147;SDS011;12309;51.450;-2.624;2024-03-07T06:13:10;18.27;;;12.63;;
24147;SDS011;12309;51.450;-2.624;2024-03-07T06:15:37;21.97;;;13.23;;
24147;SDS011;12309;51.450;-2.624;2024-03-07T06:18:04;18.53;;;13.13;;
24147;SDS011;12309;51.450;-2.624;2024-03-07T06:20:30;18.33;;;12.80;;
24147;SDS011;12309;51.450;-2.624;2024-03-07T06:22:57;17.90;;;12.73;;
24147;SDS011;12309;51.450;-2.624;2024-03-07T06:25:22;19.37;;;13.30;;
24147;SDS011;12309;51.450;-2.624;2024-03-07T06:28:00;18.27;;;12.93;;
24147;SDS011;12309;51.450;-2.624;2024-03-07T06:30:34;21.73;;;13.57;;
24147;SDS011;12309;51.450;-2.624;2024-03-07T06:33:01;18.67;;;13.00;;
24147;SDS011;12309;51.450;-2.624;2024-03-07T06:35:26;19.50;;;13.27;;
24147;SDS011;12309;51.450;-2.624;2024-03-07T06:37:52;21.33;;;13.47;;
24147;SDS011;12309;51.450;-2.624;2024-03-07T06:40:17;19.43;;;13.70;;
24147;SDS011;12309;51.450;-2.624;2024-03-07T06:42:47;20.27;;;13.47;;
24147;SDS011;12309;51.450;-2.624;2024-03-07T06:45:17;20.37;;;13.67;;
24147;SDS011;12309;51.450;-2.624;2024-03-07T06:47:43;22.33;;;14.37;;
24147;SDS011;12309;51.450;-2.624;2024-03-07T06:50:09;22.07;;;13.73;;
24147;SDS011;12309;51.450;-2.624;2024-03-07T06:52:39;21.23;;;14.00;;
24147;SDS011;12309;51.450;-2.624;2024-03-07T06:55:05;25.47;;;15.17;;
24147;SDS011;12309;51.450;-2.624;2024-03-07T06:57:32;21.83;;;14.73;;
24147;SDS011;12309;51.450;-2.624;2024-03-07T06:59:59;25.20;;;15.50;;
24147;SDS011;12309;51.450;-2.624;2024-03-07T07:02:25;24.10;;;15.23;;
24147;SDS011;12309;51.450;-2.624;2024-03-07T07:04:52;26.60;;;15.60;;
24147;SDS011;12309;51.450;-2.624;2024-03-07T07:07:18;28.83;;;16.83;;
24147;SDS011;12309;51.450;-2.624;2024-03-07T07:09:45;25.23;;;15.37;;
24147;SDS011;12309;51.450;-2.624;2024-03-07T07:12:10;26.17;;;15.77;;
24147;SDS011;12309;51.450;-2.624;2024-03-07T07:14:36;27.97;;;15.20;;
24147;SDS011;12309;51.450;-2.624;2024-03-07T07:17:03;28.97;;;16.47;;
24147;SDS011;12309;51.450;-2.624;2024-03-07T07:19:28;28.63;;;16.60;;
24147;SDS011;12309;51.450;-2.624;2024-03-07T07:21:54;27.53;;;15.93;;
24147;SDS011;12309;51.450;-2.624;2024-03-07T07:24:20;33.23;;;16.70;;
24147;SDS011;12309;51.450;-2.624;2024-03-07T07:26:48;27.37;;;16.00;;
24147;SDS011;12309;51.450;-2.624;2024-03-07T07:29:15;30.03;;;16.90;;
24147;SDS011;12309;51.450;-2.624;2024-03-07T07:31:41;30.90;;;16.83;;
24147;SDS011;12309;51.450;-2.624;2024-03-07T07:34:07;26.20;;;16.27;;
24147;SDS011;12309;51.450;-2.624;2024-03-07T07:36:33;28.80;;;16.13;;
24147;SDS011;12309;51.450;-2.624;2024-03-07T07:38:58;26.33;;;15.53;;
24147;SDS011;12309;51.450;-2.624;2024-03-07T07:41:24;31.10;;;17.10;;
24147;SDS011;12309;51.450;-2.624;2024-03-07T07:43:50;31.87;;;16.57;;
24147;SDS011;12309;51.450;-2.624;2024-03-07T07:46:16;29.40;;;16.47;;
24147;SDS011;12309;51.450;-2.624;2024-03-07T07:48:42;28.63;;;16.47;;
24147;SDS011;12309;51.450;-2.624;2024-03-07T07:51:07;29.53;;;16.40;;
24147;SDS011;12309;51.450;-2.624;2024-03-07T07:53:34;28.90;;;16.17;;
24147;SDS011;12309;51.450;-2.624;2024-03-07T07:56:00;29.67;;;15.80;;
24147;SDS011;12309;51.450;-2.624;2024-03-07T07:58:25;30.27;;;16.53;;
24147;SDS011;12309;51.450;-2.624;2024-03-07T08:00:51;32.03;;;16.20;;
24147;SDS011;12309;51.450;-2.624;2024-03-07T08:03:17;32.40;;;16.27;;
24147;SDS011;12309;51.450;-2.624;2024-03-07T08:05:43;28.87;;;15.13;;
24147;SDS011;12309;51.450;-2.624;2024-03-07T08:08:10;30.97;;;16.10;;
24147;SDS011;12309;51.450;-2.624;2024-03-07T08:10:38;30.73;;;15.57;;
24147;SDS011;12309;51.450;-2.624;2024-03-07T08:13:10;30.77;;;16.07;;
24147;SDS011;12309;51.450;-2.624;2024-03-07T08:15:38;26.70;;;14.53;;
24147;SDS011;12309;51.450;-2.624;2024-03-07T08:18:04;31.60;;;15.50;;
24147;SDS011;12309;51.450;-2.624;2024-03-07T08:20:36;28.30;;;14.90;;
24147;SDS011;12309;51.450;-2.624;2024-03-07T08:23:02;27.33;;;14.90;;
24147;SDS011;12309;51.450;-2.624;2024-03-07T08:25:28;27.70;;;14.73;;
24147;SDS011;12309;51.450;-2.624;2024-03-07T08:27:55;31.23;;;15.33;;
24147;SDS011;12309;51.450;-2.624;2024-03-07T08:30:23;26.03;;;14.27;;
24147;SDS011;12309;51.450;-2.624;2024-03-07T08:32:49;26.63;;;14.10;;
24147;SDS011;12309;51.450;-2.624;2024-03-07T08:35:19;25.60;;;13.57;;
24147;SDS011;12309;51.450;-2.624;2024-03-07T08:37:46;31.43;;;15.00;;
24147;SDS011;12309;51.450;-2.624;2024-03-07T08:40:17;30.63;;;13.97;;
24147;SDS011;12309;51.450;-2.624;2024-03-07T08:42:47;27.87;;;13.43;;
24147;SDS011;12309;51.450;-2.624;2024-03-07T08:45:15;28.77;;;14.47;;
24147;SDS011;12309;51.450;-2.624;2024-03-07T08:47:44;26.53;;;14.10;;
24147;SDS011;12309;51.450;-2.624;2024-03-07T08:50:16;26.37;;;12.50;;
24147;SDS011;12309;51.450;-2.624;2024-03-07T08:52:46;31.03;;;14.50;;
24147;SDS011;12309;51.450;-2.624;2024-03-07T08:55:14;29.50;;;13.73;;
24147;SDS011;12309;51.450;-2.624;2024-03-07T08:57:42;28.10;;;13.83;;
24147;SDS011;12309;51.450;-2.624;2024-03-07T09:00:13;29.60;;;13.60;;
24147;SDS011;12309;51.450;-2.624;2024-03-07T09:02:52;28.17;;;13.53;;
24147;SDS011;12309;51.450;-2.624;2024-03-07T09:05:23;34.00;;;14.40;;
24147;SDS011;12309;51.450;-2.624;2024-03-07T09:07:49;28.50;;;14.53;;
24147;SDS011;12309;51.450;-2.624;2024-03-07T09:10:16;30.77;;;14.03;;
24147;SDS011;12309;51.450;-2.624;2024-03-07T09:12:43;31.57;;;14.57;;
24147;SDS011;12309;51.450;-2.624;2024-03-07T09:15:09;32.80;;;14.10;;
24147;SDS011;12309;51.450;-2.624;2024-03-07T09:17:39;29.53;;;13.57;;
24147;SDS011;12309;51.450;-2.624;2024-03-07T09:20:05;28.17;;;13.90;;
24147;SDS011;12309;51.450;-2.624;2024-03-07T09:22:31;31.10;;;13.73;;
24147;SDS011;12309;51.450;-2.624;2024-03-07T09:24:58;27.77;;;12.47;;
24147;SDS011;12309;51.450;-2.624;2024-03-07T09:27:24;40.40;;;16.03;;
24147;SDS011;12309;51.450;-2.624;2024-03-07T09:29:50;35.53;;;14.40;;
24147;SDS011;12309;51.450;-2.624;2024-03-07T09:32:16;30.20;;;13.87;;
24147;SDS011;12309;51.450;-2.624;2024-03-07T09:34:42;28.97;;;12.93;;
24147;SDS011;12309;51.450;-2.624;2024-03-07T09:37:08;38.67;;;14.73;;
24147;SDS011;12309;51.450;-2.624;2024-03-07T09:39:34;37.77;;;14.83;;
24147;SDS011;12309;51.450;-2.624;2024-03-07T09:42:00;35.37;;;14.97;;
24147;SDS011;12309;51.450;-2.624;2024-03-07T09:44:27;31.97;;;14.27;;
24147;SDS011;12309;51.450;-2.624;2024-03-07T09:46:56;32.20;;;14.90;;
24147;SDS011;12309;51.450;-2.624;2024-03-07T09:49:24;25.40;;;11.83;;
24147;SDS011;12309;51.450;-2.624;2024-03-07T09:51:51;31.13;;;14.43;;
24147;SDS011;12309;51.450;-2.624;2024-03-07T09:54:22;29.40;;;13.93;;
24147;SDS011;12309;51.450;-2.624;2024-03-07T09:56:53;30.20;;;13.40;;
24147;SDS011;12309;51.450;-2.624;2024-03-07T09:59:23;22.83;;;11.53;;
24147;SDS011;12309;51.450;-2.624;2024-03-07T10:01:55;24.20;;;11.03;;
24147;SDS011;12309;51.450;-2.624;2024-03-07T10:04:37;22.93;;;11.13;;
24147;SDS011;12309;51.450;-2.624;2024-03-07T10:07:08;26.53;;;12.33;;
24147;SDS011;12309;51.450;-2.624;2024-03-07T10:09:38;25.20;;;12.43;;
24147;SDS011;12309;51.450;-2.624;2024-03-07T10:12:05;27.83;;;13.67;;
24147;SDS011;12309;51.450;-2.624;2024-03-07T10:14:37;28.93;;;13.87;;
24147;SDS011;12309;51.450;-2.624;2024-03-07T10:17:03;28.13;;;12.97;;
24147;SDS011;12309;51.450;-2.624;2024-03-07T10:19:29;29.33;;;13.73;;
24147;SDS011;12309;51.450;-2.624;2024-03-07T10:21:55;28.93;;;12.63;;
24147;SDS011;12309;51.450;-2.624;2024-03-07T10:24:24;27.27;;;13.23;;
24147;SDS011;12309;51.450;-2.624;2024-03-07T10:26:50;25.77;;;12.93;;
24147;SDS011;12309;51.450;-2.624;2024-03-07T10:29:17;27.40;;;13.23;;
24147;SDS011;12309;51.450;-2.624;2024-03-07T10:31:43;28.60;;;14.13;;
24147;SDS011;12309;51.450;-2.624;2024-03-07T10:34:10;28.77;;;15.33;;
24147;SDS011;12309;51.450;-2.624;2024-03-07T10:36:36;29.07;;;13.70;;
24147;SDS011;12309;51.450;-2.624;2024-03-07T10:39:02;23.17;;;12.37;;
24147;SDS011;12309;51.450;-2.624;2024-03-07T10:41:46;20.40;;;11.80;;
24147;SDS011;12309;51.450;-2.624;2024-03-07T10:44:16;24.70;;;12.77;;
24147;SDS011;12309;51.450;-2.624;2024-03-07T10:46:54;26.03;;;12.40;;
24147;SDS011;12309;51.450;-2.624;2024-03-07T10:49:21;23.05;;;12.25;;
24147;SDS011;12309;51.450;-2.624;2024-03-07T10:51:50;24.40;;;12.32;;
24147;SDS011;12309;51.450;-2.624;2024-03-07T10:54:29;23.50;;;12.05;;
24147;SDS011;12309;51.450;-2.624;2024-03-07T10:59:51;23.67;;;13.43;;
24147;SDS011;12309;51.450;-2.624;2024-03-07T11:04:52;24.38;;;11.90;;
24147;SDS011;12309;51.450;-2.624;2024-03-07T11:07:20;25.50;;;12.85;;
24147;SDS011;12309;51.450;-2.624;2024-03-07T11:09:47;22.00;;;11.73;;
24147;SDS011;12309;51.450;-2.624;2024-03-07T11:12:18;24.95;;;11.85;;
24147;SDS011;12309;51.450;-2.624;2024-03-07T11:14:46;26.65;;;12.88;;
24147;SDS011;12309;51.450;-2.624;2024-03-07T11:17:14;25.50;;;14.10;;
24147;SDS011;12309;51.450;-2.624;2024-03-07T11:19:41;26.67;;;13.40;;
24147;SDS011;12309;51.450;-2.624;2024-03-07T11:22:07;22.15;;;12.23;;
24147;SDS011;12309;51.450;-2.624;2024-03-07T11:24:42;22.40;;;11.27;;
24147;SDS011;12309;51.450;-2.624;2024-03-07T11:27:10;22.95;;;11.82;;
24147;SDS011;12309;51.450;-2.624;2024-03-07T11:29:39;25.38;;;12.55;;
24147;SDS011;12309;51.450;-2.624;2024-03-07T11:32:18;22.30;;;13.27;;
24147;SDS011;12309;51.450;-2.624;2024-03-07T11:34:48;24.33;;;11.13;;
24147;SDS011;12309;51.450;-2.624;2024-03-07T11:37:59;18.75;;;10.13;;
24147;SDS011;12309;51.450;-2.624;2024-03-07T11:40:13;20.23;;;11.57;;
24147;SDS011;12309;51.450;-2.624;2024-03-07T11:43:05;22.73;;;11.48;;
24147;SDS011;12309;51.450;-2.624;2024-03-07T11:45:31;15.60;;;9.85;;
24147;SDS011;12309;51.450;-2.624;2024-03-07T11:48:17;19.13;;;11.65;;
24147;SDS011;12309;51.450;-2.624;2024-03-07T11:50:45;19.48;;;11.38;;
24147;SDS011;12309;51.450;-2.624;2024-03-07T11:53:11;18.08;;;10.35;;
24147;SDS011;12309;51.450;-2.624;2024-03-07T11:55:37;22.75;;;11.48;;
24147;SDS011;12309;51.450;-2.624;2024-03-07T11:58:18;17.67;;;10.15;;
24147;SDS011;12309;51.450;-2.624;2024-03-07T12:00:48;15.80;;;9.95;;
24147;SDS011;12309;51.450;-2.624;2024-03-07T12:03:16;19.40;;;10.77;;
24147;SDS011;12309;51.450;-2.624;2024-03-07T12:05:46;17.23;;;9.80;;
24147;SDS011;12309;51.450;-2.624;2024-03-07T12:08:13;19.80;;;10.73;;
24147;SDS011;12309;51.450;-2.624;2024-03-07T12:10:39;16.80;;;10.20;;
24147;SDS011;12309;51.450;-2.624;2024-03-07T12:13:08;17.02;;;10.75;;
24147;SDS011;12309;51.450;-2.624;2024-03-07T12:15:40;22.98;;;11.82;;
24147;SDS011;12309;51.450;-2.624;2024-03-07T12:18:07;27.95;;;15.77;;
24147;SDS011;12309;51.450;-2.624;2024-03-07T12:20:36;28.40;;;15.38;;
24147;SDS011;12309;51.450;-2.624;2024-03-07T12:23:03;33.58;;;16.67;;
24147;SDS011;12309;51.450;-2.624;2024-03-07T12:25:35;33.63;;;14.90;;
24147;SDS011;12309;51.450;-2.624;2024-03-07T12:28:08;25.30;;;14.40;;
24147;SDS011;12309;51.450;-2.624;2024-03-07T12:30:49;25.10;;;15.15;;
24147;SDS011;12309;51.450;-2.624;2024-03-07T12:33:17;27.38;;;15.40;;
24147;SDS011;12309;51.450;-2.624;2024-03-07T12:35:44;24.10;;;14.50;;
24147;SDS011;12309;51.450;-2.624;2024-03-07T12:38:15;19.75;;;12.02;;
24147;SDS011;12309;51.450;-2.624;2024-03-07T12:40:44;21.73;;;13.05;;
24147;SDS011;12309;51.450;-2.624;2024-03-07T12:43:14;25.05;;;13.70;;
24147;SDS011;12309;51.450;-2.624;2024-03-07T12:45:45;24.85;;;13.23;;
24147;SDS011;12309;51.450;-2.624;2024-03-07T12:48:19;22.98;;;13.35;;
24147;SDS011;12309;51.450;-2.624;2024-03-07T12:50:49;23.60;;;13.05;;
24147;SDS011;12309;51.450;-2.624;2024-03-07T12:53:18;21.27;;;13.25;;
24147;SDS011;12309;51.450;-2.624;2024-03-07T12:55:45;23.73;;;14.40;;
24147;SDS011;12309;51.450;-2.624;2024-03-07T12:58:11;21.10;;;12.95;;
24147;SDS011;12309;51.450;-2.624;2024-03-07T13:00:40;21.58;;;12.60;;
24147;SDS011;12309;51.450;-2.624;2024-03-07T13:03:07;26.08;;;14.27;;
24147;SDS011;12309;51.450;-2.624;2024-03-07T13:05:37;28.42;;;15.90;;
24147;SDS011;12309;51.450;-2.624;2024-03-07T13:08:06;27.50;;;16.45;;
24147;SDS011;12309;51.450;-2.624;2024-03-07T13:10:41;23.85;;;15.63;;
24147;SDS011;12309;51.450;-2.624;2024-03-07T13:13:07;28.83;;;16.98;;
24147;SDS011;12309;51.450;-2.624;2024-03-07T13:15:39;27.85;;;17.52;;
24147;SDS011;12309;51.450;-2.624;2024-03-07T13:18:07;30.55;;;18.00;;
24147;SDS011;12309;51.450;-2.624;2024-03-07T13:20:34;29.63;;;17.55;;
24147;SDS011;12309;51.450;-2.624;2024-03-07T13:23:00;28.27;;;16.70;;
24147;SDS011;12309;51.450;-2.624;2024-03-07T13:25:26;33.45;;;18.10;;
24147;SDS011;12309;51.450;-2.624;2024-03-07T13:30:40;27.75;;;16.23;;
24147;SDS011;12309;51.450;-2.624;2024-03-07T13:33:06;32.92;;;17.63;;
24147;SDS011;12309;51.450;-2.624;2024-03-07T13:35:32;34.55;;;19.13;;
24147;SDS011;12309;51.450;-2.624;2024-03-07T13:37:58;37.85;;;20.20;;
24147;SDS011;12309;51.450;-2.624;2024-03-07T13:40:25;39.47;;;21.92;;
24147;SDS011;12309;51.450;-2.624;2024-03-07T13:42:55;40.17;;;23.77;;
24147;SDS011;12309;51.450;-2.624;2024-03-07T13:45:25;41.50;;;24.83;;
24147;SDS011;12309;51.450;-2.624;2024-03-07T13:47:53;48.33;;;25.73;;
24147;SDS011;12309;51.450;-2.624;2024-03-07T13:50:20;50.83;;;28.40;;
24147;SDS011;12309;51.450;-2.624;2024-03-07T13:52:51;53.75;;;29.10;;
24147;SDS011;12309;51.450;-2.624;2024-03-07T13:58:57;63.88;;;32.50;;
24147;SDS011;12309;51.450;-2.624;2024-03-07T14:29:19;62.45;;;35.75;;
24147;SDS011;12309;51.450;-2.624;2024-03-07T14:32:03;67.07;;;36.30;;
24147;SDS011;12309;51.450;-2.624;2024-03-07T14:37:27;69.30;;;38.08;;
24147;SDS011;12309;51.450;-2.624;2024-03-07T14:40:19;67.90;;;36.55;;
24147;SDS011;12309;51.450;-2.624;2024-03-07T14:42:46;70.40;;;37.83;;
24147;SDS011;12309;51.450;-2.624;2024-03-07T14:45:21;74.88;;;39.10;;
24147;SDS011;12309;51.450;-2.624;2024-03-07T14:47:49;66.93;;;36.72;;
24147;SDS011;12309;51.450;-2.624;2024-03-07T14:50:17;68.57;;;36.50;;
24147;SDS011;12309;51.450;-2.624;2024-03-07T14:52:45;72.55;;;36.45;;
24147;SDS011;12309;51.450;-2.624;2024-03-07T14:55:12;66.88;;;35.88;;
24147;SDS011;12309;51.450;-2.624;2024-03-07T14:57:38;68.63;;;37.10;;
24147;SDS011;12309;51.450;-2.624;2024-03-07T15:00:10;67.05;;;36.88;;